sensor_id;sensor_type;location;lat;lon;timestamp;pressure;altitude;pressure_sealevel;temperature;humidity
50636;BME280;36598;46.054;11.130;2022-12-18T00:00:40;100360.22;;;2.25;72.35
50636;BME280;36598;46.054;11.130;2022-12-18T00:03:05;100351.78;;;2.60;71.40
50636;BME280;36598;46.054;11.130;2022-12-18T00:05:30;100354.44;;;2.27;71.00
50636;BME280;36598;46.054;11.130;2022-12-18T00:07:56;100354.66;;;1.84;70.53
50636;BME280;36598;46.054;11.130;2022-12-18T00:10:21;100355.25;;;1.98;71.79
50636;BME280;36598;46.054;11.130;2022-12-18T00:12:46;100347.22;;;2.22;71.29
50636;BME280;36598;46.054;11.130;2022-12-18T00:15:11;100350.19;;;2.59;69.61
50636;BME280;36598;46.054;11.130;2022-12-18T00:17:37;100363.38;;;2.36;70.21
50636;BME280;36598;46.054;11.130;2022-12-18T00:20:02;100351.13;;;2.42;70.30
50636;BME280;36598;46.054;11.130;2022-12-18T00:22:27;100363.69;;;2.35;71.03
50636;BME280;36598;46.054;11.130;2022-12-18T00:24:53;100361.00;;;2.56;70.49
50636;BME280;36598;46.054;11.130;2022-12-18T00:27:18;100365.59;;;2.13;72.40
50636;BME280;36598;46.054;11.130;2022-12-18T00:29:43;100367.72;;;1.69;73.64
50636;BME280;36598;46.054;11.130;2022-12-18T00:32:08;100371.28;;;1.61;72.87
50636;BME280;36598;46.054;11.130;2022-12-18T00:34:34;100374.34;;;1.98;72.23
50636;BME280;36598;46.054;11.130;2022-12-18T00:36:59;100385.28;;;1.98;72.75
50636;BME280;36598;46.054;11.130;2022-12-18T00:39:24;100375.84;;;2.16;72.10
50636;BME280;36598;46.054;11.130;2022-12-18T00:41:49;100385.75;;;2.30;70.43
50636;BME280;36598;46.054;11.130;2022-12-18T00:44:33;100390.53;;;2.03;71.86
50636;BME280;36598;46.054;11.130;2022-12-18T00:46:58;100394.34;;;1.72;72.85
50636;BME280;36598;46.054;11.130;2022-12-18T00:49:24;100396.47;;;2.05;71.87
50636;BME280;36598;46.054;11.130;2022-12-18T00:51:49;100403.25;;;1.99;72.13
50636;BME280;36598;46.054;11.130;2022-12-18T00:54:14;100405.47;;;2.06;72.03
50636;BME280;36598;46.054;11.130;2022-12-18T00:56:40;100413.06;;;2.30;70.88
50636;BME280;36598;46.054;11.130;2022-12-18T00:59:05;100419.00;;;2.32;71.37
50636;BME280;36598;46.054;11.130;2022-12-18T01:01:30;100413.28;;;2.16;71.36
50636;BME280;36598;46.054;11.130;2022-12-18T01:03:55;100414.84;;;2.25;70.42
50636;BME280;36598;46.054;11.130;2022-12-18T01:06:22;100421.59;;;2.28;70.84
50636;BME280;36598;46.054;11.130;2022-12-18T01:08:48;100412.00;;;1.66;72.59
50636;BME280;36598;46.054;11.130;2022-12-18T01:11:15;100424.25;;;2.07;70.98
50636;BME280;36598;46.054;11.130;2022-12-18T01:13:40;100416.63;;;2.21;70.27
50636;BME280;36598;46.054;11.130;2022-12-18T01:16:06;100425.06;;;1.99;71.41
50636;BME280;36598;46.054;11.130;2022-12-18T01:18:31;100434.97;;;2.12;70.75
50636;BME280;36598;46.054;11.130;2022-12-18T01:20:56;100443.69;;;1.97;71.03
50636;BME280;36598;46.054;11.130;2022-12-18T01:23:22;100444.69;;;1.84;71.81
50636;BME280;36598;46.054;11.130;2022-12-18T01:25:47;100447.16;;;1.68;72.84
50636;BME280;36598;46.054;11.130;2022-12-18T01:28:12;100455.06;;;2.08;71.08
50636;BME280;36598;46.054;11.130;2022-12-18T01:30:37;100462.03;;;1.88;71.33
50636;BME280;36598;46.054;11.130;2022-12-18T01:33:05;100458.94;;;2.07;70.97
50636;BME280;36598;46.054;11.130;2022-12-18T01:35:31;100464.59;;;1.93;70.42
50636;BME280;36598;46.054;11.130;2022-12-18T01:37:57;100456.16;;;1.60;72.02
50636;BME280;36598;46.054;11.130;2022-12-18T01:40:22;100466.91;;;1.73;71.17
50636;BME280;36598;46.054;11.130;2022-12-18T01:42:51;100470.41;;;1.83;70.82
50636;BME280;36598;46.054;11.130;2022-12-18T01:45:27;100476.53;;;1.62;71.52
50636;BME280;36598;46.054;11.130;2022-12-18T01:47:56;100480.38;;;1.61;70.63
50636;BME280;36598;46.054;11.130;2022-12-18T01:53:02;100488.75;;;1.30;71.76
50636;BME280;36598;46.054;11.130;2022-12-18T01:55:29;100504.31;;;1.56;71.03
50636;BME280;36598;46.054;11.130;2022-12-18T01:57:56;100504.47;;;1.59;71.10
50636;BME280;36598;46.054;11.130;2022-12-18T02:00:22;100512.81;;;1.19;72.25
50636;BME280;36598;46.054;11.130;2022-12-18T02:02:48;100517.78;;;1.17;72.23
50636;BME280;36598;46.054;11.130;2022-12-18T02:05:15;100519.84;;;0.94;72.27
50636;BME280;36598;46.054;11.130;2022-12-18T02:10:29;100523.84;;;0.97;71.94
50636;BME280;36598;46.054;11.130;2022-12-18T02:15:54;100519.03;;;1.11;71.35
50636;BME280;36598;46.054;11.130;2022-12-18T02:18:30;100518.06;;;0.98;72.22
50636;BME280;36598;46.054;11.130;2022-12-18T02:23:44;100524.19;;;1.13;71.26
50636;BME280;36598;46.054;11.130;2022-12-18T02:28:41;100528.03;;;0.94;71.70
50636;BME280;36598;46.054;11.130;2022-12-18T02:31:08;100535.13;;;1.30;70.24
50636;BME280;36598;46.054;11.130;2022-12-18T02:33:36;100533.50;;;1.12;71.83
50636;BME280;36598;46.054;11.130;2022-12-18T02:36:02;100539.41;;;1.05;71.96
50636;BME280;36598;46.054;11.130;2022-12-18T02:38:28;100541.00;;;1.06;71.09
50636;BME280;36598;46.054;11.130;2022-12-18T02:40:54;100541.66;;;1.03;71.75
50636;BME280;36598;46.054;11.130;2022-12-18T02:43:20;100550.03;;;1.33;70.75
50636;BME280;36598;46.054;11.130;2022-12-18T02:45:46;100553.88;;;1.66;69.10
50636;BME280;36598;46.054;11.130;2022-12-18T02:48:12;100554.22;;;1.56;69.94
50636;BME280;36598;46.054;11.130;2022-12-18T02:50:38;100548.13;;;1.59;69.41
50636;BME280;36598;46.054;11.130;2022-12-18T02:53:28;100549.72;;;1.43;70.08
50636;BME280;36598;46.054;11.130;2022-12-18T03:00:59;100569.16;;;1.50;70.67
50636;BME280;36598;46.054;11.130;2022-12-18T03:03:28;100572.81;;;1.54;70.56
50636;BME280;36598;46.054;11.130;2022-12-18T03:06:16;100562.72;;;1.46;70.15
50636;BME280;36598;46.054;11.130;2022-12-18T03:08:44;100564.78;;;1.66;69.97
50636;BME280;36598;46.054;11.130;2022-12-18T03:11:12;100564.31;;;1.73;68.76
50636;BME280;36598;46.054;11.130;2022-12-18T03:13:46;100574.91;;;1.40;70.55
50636;BME280;36598;46.054;11.130;2022-12-18T03:16:14;100569.75;;;1.30;70.14
50636;BME280;36598;46.054;11.130;2022-12-18T03:18:51;100573.94;;;1.44;70.04
50636;BME280;36598;46.054;11.130;2022-12-18T03:21:21;100560.63;;;1.60;68.80
50636;BME280;36598;46.054;11.130;2022-12-18T03:23:49;100566.22;;;1.12;69.90
50636;BME280;36598;46.054;11.130;2022-12-18T03:26:16;100568.59;;;1.05;70.90
50636;BME280;36598;46.054;11.130;2022-12-18T03:28:44;100565.66;;;0.84;70.88
50636;BME280;36598;46.054;11.130;2022-12-18T03:31:11;100572.63;;;1.07;70.74
50636;BME280;36598;46.054;11.130;2022-12-18T03:36:17;100576.63;;;1.10;70.95
50636;BME280;36598;46.054;11.130;2022-12-18T03:38:42;100587.03;;;0.99;70.65
50636;BME280;36598;46.054;11.130;2022-12-18T03:41:29;100597.00;;;0.72;70.06
50636;BME280;36598;46.054;11.130;2022-12-18T03:46:33;100586.38;;;1.02;70.04
50636;BME280;36598;46.054;11.130;2022-12-18T03:49:09;100584.88;;;0.79;71.11
50636;BME280;36598;46.054;11.130;2022-12-18T03:54:15;100598.44;;;1.18;69.81
50636;BME280;36598;46.054;11.130;2022-12-18T03:56:48;100601.97;;;1.28;68.96
50636;BME280;36598;46.054;11.130;2022-12-18T03:59:16;100593.50;;;0.72;70.40
50636;BME280;36598;46.054;11.130;2022-12-18T04:01:43;100606.09;;;0.99;69.64
50636;BME280;36598;46.054;11.130;2022-12-18T04:04:10;100602.53;;;0.90;70.30
50636;BME280;36598;46.054;11.130;2022-12-18T04:06:37;100613.44;;;0.98;69.16
50636;BME280;36598;46.054;11.130;2022-12-18T04:09:03;100619.53;;;0.87;69.17
50636;BME280;36598;46.054;11.130;2022-12-18T04:11:29;100615.22;;;0.94;69.38
50636;BME280;36598;46.054;11.130;2022-12-18T04:13:55;100615.25;;;1.03;69.15
50636;BME280;36598;46.054;11.130;2022-12-18T04:16:22;100622.88;;;0.84;69.38
50636;BME280;36598;46.054;11.130;2022-12-18T04:18:47;100627.22;;;0.93;69.20
50636;BME280;36598;46.054;11.130;2022-12-18T04:21:12;100636.81;;;0.82;69.23
50636;BME280;36598;46.054;11.130;2022-12-18T04:23:37;100645.25;;;0.72;69.85
50636;BME280;36598;46.054;11.130;2022-12-18T04:26:03;100650.63;;;0.86;69.96
50636;BME280;36598;46.054;11.130;2022-12-18T04:28:28;100643.66;;;0.71;69.88
50636;BME280;36598;46.054;11.130;2022-12-18T04:30:53;100645.09;;;0.77;69.56
50636;BME280;36598;46.054;11.130;2022-12-18T04:33:19;100653.22;;;0.68;69.71
50636;BME280;36598;46.054;11.130;2022-12-18T04:35:45;100657.50;;;0.52;70.62
50636;BME280;36598;46.054;11.130;2022-12-18T04:38:10;100665.84;;;0.33;71.30
50636;BME280;36598;46.054;11.130;2022-12-18T04:40:36;100660.97;;;0.44;70.93
50636;BME280;36598;46.054;11.130;2022-12-18T04:43:01;100669.47;;;0.51;70.94
50636;BME280;36598;46.054;11.130;2022-12-18T04:45:27;100664.03;;;0.73;69.87
50636;BME280;36598;46.054;11.130;2022-12-18T04:47:52;100676.13;;;0.98;69.53
50636;BME280;36598;46.054;11.130;2022-12-18T04:50:18;100675.00;;;0.91;69.29
50636;BME280;36598;46.054;11.130;2022-12-18T04:52:43;100678.25;;;1.02;69.17
50636;BME280;36598;46.054;11.130;2022-12-18T04:55:08;100681.03;;;1.19;67.98
50636;BME280;36598;46.054;11.130;2022-12-18T04:57:33;100689.84;;;1.07;69.01
50636;BME280;36598;46.054;11.130;2022-12-18T04:59:59;100692.34;;;0.95;69.53
50636;BME280;36598;46.054;11.130;2022-12-18T05:02:24;100689.25;;;0.88;70.01
50636;BME280;36598;46.054;11.130;2022-12-18T05:04:49;100691.78;;;0.84;69.90
50636;BME280;36598;46.054;11.130;2022-12-18T05:07:14;100694.56;;;0.93;69.95
50636;BME280;36598;46.054;11.130;2022-12-18T05:09:40;100691.84;;;0.93;69.84
50636;BME280;36598;46.054;11.130;2022-12-18T05:12:05;100695.63;;;0.52;71.09
50636;BME280;36598;46.054;11.130;2022-12-18T05:14:30;100700.75;;;0.31;72.45
50636;BME280;36598;46.054;11.130;2022-12-18T05:16:56;100706.41;;;0.35;72.54
50636;BME280;36598;46.054;11.130;2022-12-18T05:19:21;100707.13;;;0.49;71.72
50636;BME280;36598;46.054;11.130;2022-12-18T05:21:46;100708.72;;;0.05;72.80
50636;BME280;36598;46.054;11.130;2022-12-18T05:24:12;100715.72;;;0.20;71.88
50636;BME280;36598;46.054;11.130;2022-12-18T05:26:37;100715.00;;;-0.08;72.19
50636;BME280;36598;46.054;11.130;2022-12-18T05:29:02;100718.19;;;0.08;72.40
50636;BME280;36598;46.054;11.130;2022-12-18T05:31:28;100719.53;;;-0.04;71.85
50636;BME280;36598;46.054;11.130;2022-12-18T05:33:53;100715.16;;;0.09;71.39
50636;BME280;36598;46.054;11.130;2022-12-18T05:36:19;100708.75;;;0.28;71.71
50636;BME280;36598;46.054;11.130;2022-12-18T05:38:44;100713.56;;;0.31;71.10
50636;BME280;36598;46.054;11.130;2022-12-18T05:41:09;100712.56;;;0.49;70.63
50636;BME280;36598;46.054;11.130;2022-12-18T05:43:35;100719.88;;;0.62;70.18
50636;BME280;36598;46.054;11.130;2022-12-18T05:46:08;100725.63;;;0.61;70.25
50636;BME280;36598;46.054;11.130;2022-12-18T05:48:34;100725.44;;;0.57;70.46
50636;BME280;36598;46.054;11.130;2022-12-18T05:51:06;100739.81;;;0.49;71.18
50636;BME280;36598;46.054;11.130;2022-12-18T05:53:32;100748.72;;;0.86;69.64
50636;BME280;36598;46.054;11.130;2022-12-18T05:56:01;100748.91;;;0.44;71.23
50636;BME280;36598;46.054;11.130;2022-12-18T05:58:27;100751.56;;;0.81;70.41
50636;BME280;36598;46.054;11.130;2022-12-18T06:00:52;100756.75;;;0.68;70.44
50636;BME280;36598;46.054;11.130;2022-12-18T06:03:17;100758.38;;;0.69;70.33
50636;BME280;36598;46.054;11.130;2022-12-18T06:05:43;100762.34;;;0.63;70.81
50636;BME280;36598;46.054;11.130;2022-12-18T06:08:09;100769.97;;;0.53;70.48
50636;BME280;36598;46.054;11.130;2022-12-18T06:10:34;100768.22;;;0.57;70.31
50636;BME280;36598;46.054;11.130;2022-12-18T06:13:00;100768.16;;;0.48;70.75
50636;BME280;36598;46.054;11.130;2022-12-18T06:15:25;100775.66;;;0.65;69.60
50636;BME280;36598;46.054;11.130;2022-12-18T06:17:50;100775.69;;;0.51;69.75
50636;BME280;36598;46.054;11.130;2022-12-18T06:20:16;100781.41;;;0.63;69.63
50636;BME280;36598;46.054;11.130;2022-12-18T06:22:41;100783.72;;;0.70;69.58
50636;BME280;36598;46.054;11.130;2022-12-18T06:25:06;100796.16;;;0.62;68.61
50636;BME280;36598;46.054;11.130;2022-12-18T06:27:32;100791.00;;;0.83;68.57
50636;BME280;36598;46.054;11.130;2022-12-18T06:29:58;100802.22;;;0.82;68.40
50636;BME280;36598;46.054;11.130;2022-12-18T06:32:23;100799.03;;;0.43;69.98
50636;BME280;36598;46.054;11.130;2022-12-18T06:34:49;100800.34;;;0.46;69.88
50636;BME280;36598;46.054;11.130;2022-12-18T06:37:14;100805.72;;;0.60;69.77
50636;BME280;36598;46.054;11.130;2022-12-18T06:39:39;100802.84;;;0.56;69.69
50636;BME280;36598;46.054;11.130;2022-12-18T06:42:05;100808.50;;;0.68;69.34
50636;BME280;36598;46.054;11.130;2022-12-18T06:44:30;100815.63;;;0.56;69.57
50636;BME280;36598;46.054;11.130;2022-12-18T06:46:55;100818.19;;;0.74;69.68
50636;BME280;36598;46.054;11.130;2022-12-18T06:49:20;100819.53;;;0.63;69.55
50636;BME280;36598;46.054;11.130;2022-12-18T06:51:46;100826.44;;;0.61;69.65
50636;BME280;36598;46.054;11.130;2022-12-18T06:54:11;100824.44;;;0.75;69.59
50636;BME280;36598;46.054;11.130;2022-12-18T06:56:37;100832.56;;;0.89;67.94
50636;BME280;36598;46.054;11.130;2022-12-18T06:59:02;100821.69;;;0.30;70.49
50636;BME280;36598;46.054;11.130;2022-12-18T07:01:28;100822.25;;;0.41;70.46
50636;BME280;36598;46.054;11.130;2022-12-18T07:03:53;100825.56;;;0.74;69.21
50636;BME280;36598;46.054;11.130;2022-12-18T07:06:20;100833.53;;;0.70;69.47
50636;BME280;36598;46.054;11.130;2022-12-18T07:08:46;100834.16;;;0.67;69.30
50636;BME280;36598;46.054;11.130;2022-12-18T07:11:11;100834.72;;;0.42;70.33
50636;BME280;36598;46.054;11.130;2022-12-18T07:13:37;100836.81;;;0.59;69.75
50636;BME280;36598;46.054;11.130;2022-12-18T07:16:06;100838.38;;;0.73;69.14
50636;BME280;36598;46.054;11.130;2022-12-18T07:18:32;100848.78;;;0.71;69.48
50636;BME280;36598;46.054;11.130;2022-12-18T07:20:57;100854.13;;;0.99;68.00
50636;BME280;36598;46.054;11.130;2022-12-18T07:23:22;100855.28;;;0.84;67.97
50636;BME280;36598;46.054;11.130;2022-12-18T07:25:48;100861.72;;;0.66;68.75
50636;BME280;36598;46.054;11.130;2022-12-18T07:28:13;100857.81;;;0.81;68.46
50636;BME280;36598;46.054;11.130;2022-12-18T07:30:39;100862.66;;;1.06;67.71
50636;BME280;36598;46.054;11.130;2022-12-18T07:33:05;100867.91;;;0.80;67.86
50636;BME280;36598;46.054;11.130;2022-12-18T07:35:30;100868.22;;;1.01;67.49
50636;BME280;36598;46.054;11.130;2022-12-18T07:37:55;100884.72;;;1.18;68.02
50636;BME280;36598;46.054;11.130;2022-12-18T07:40:21;100884.38;;;0.75;67.80
50636;BME280;36598;46.054;11.130;2022-12-18T07:42:46;100886.13;;;0.93;67.21
50636;BME280;36598;46.054;11.130;2022-12-18T07:45:11;100897.03;;;0.93;66.98
50636;BME280;36598;46.054;11.130;2022-12-18T07:47:37;100895.06;;;1.08;66.55
50636;BME280;36598;46.054;11.130;2022-12-18T07:50:03;100904.78;;;0.78;67.25
50636;BME280;36598;46.054;11.130;2022-12-18T07:52:29;100896.13;;;1.20;65.94
50636;BME280;36598;46.054;11.130;2022-12-18T07:54:54;100901.00;;;1.55;65.35
50636;BME280;36598;46.054;11.130;2022-12-18T07:57:20;100911.81;;;1.37;65.86
50636;BME280;36598;46.054;11.130;2022-12-18T07:59:46;100911.75;;;1.29;65.49
50636;BME280;36598;46.054;11.130;2022-12-18T08:02:11;100919.94;;;1.29;65.41
50636;BME280;36598;46.054;11.130;2022-12-18T08:04:36;100925.22;;;1.56;64.38
50636;BME280;36598;46.054;11.130;2022-12-18T08:07:02;100925.66;;;1.49;64.22
